Time;durP1;ratioP1;P1;durP2;ratioP2;P2;SDS_P1;SDS_P2;PMS_P1;PMS_P2;Temp;Humidity;BMP_temperature;BMP_pressure;BME280_temperature;BME280_humidity;BME280_pressure;Samples;Min_cycle;Max_cycle;Signal;HPM_P1;HPM_P2
2022/03/14 00:02:08;;;;;;;;;2.75;2.50;;;;;9.49;67.38;101684.22;5047302;28;49343;-66
2022/03/14 00:04:37;;;;;;;;;1.75;1.75;;;;;9.45;68.12;101673.56;5050343;28;50534;-66
2022/03/14 00:07:04;;;;;;;;;2.00;2.00;;;;;9.53;67.94;101689.63;5050594;28;49495;-66
2022/03/14 00:09:30;;;;;;;;;1.00;1.00;;;;;9.08;67.17;101597.88;5051383;28;49520;-66
2022/03/14 00:11:56;;;;;;;;;2.00;1.00;;;;;8.84;66.82;101586.41;5050938;28;49634;-66
2022/03/14 00:14:24;;;;;;;;;3.75;2.00;;;;;9.16;67.02;101646.22;5050836;28;50229;-65
2022/03/14 00:16:50;;;;;;;;;4.25;3.00;;;;;9.38;67.21;101661.09;5050476;28;49388;-66
2022/03/14 00:19:15;;;;;;;;;3.00;1.75;;;;;9.53;66.73;101697.47;5050847;28;49452;-66
2022/03/14 00:21:41;;;;;;;;;1.75;1.75;;;;;9.62;67.47;101721.44;5051050;28;49601;-66
2022/03/14 00:24:10;;;;;;;;;3.75;1.25;;;;;9.57;67.18;101714.25;5031975;28;50885;-67
2022/03/14 00:26:36;;;;;;;;;2.00;2.00;;;;;9.65;67.31;101724.22;5050358;28;49472;-67
2022/03/14 00:29:03;;;;;;;;;1.25;1.25;;;;;9.69;66.95;101730.47;5050161;28;49777;-67
2022/03/14 00:31:29;;;;;;;;;2.75;2.75;;;;;9.71;67.15;101740.16;5050546;28;49469;-67
2022/03/14 00:33:54;;;;;;;;;2.00;1.00;;;;;9.58;66.97;101722.16;5050513;28;50564;-67
2022/03/14 00:36:20;;;;;;;;;2.00;1.25;;;;;9.73;66.62;101748.09;5050225;28;49461;-67
2022/03/14 00:38:46;;;;;;;;;1.00;1.00;;;;;9.34;66.58;101703.72;5031244;28;49489;-67
2022/03/14 00:41:12;;;;;;;;;3.25;1.75;;;;;9.76;66.54;101763.97;5050729;28;49473;-67
2022/03/14 00:43:38;;;;;;;;;5.00;3.00;;;;;9.78;66.72;101772.78;5049842;28;50407;-67
2022/03/14 00:46:04;;;;;;;;;2.75;2.50;;;;;8.06;66.16;101475.84;5050496;28;49620;-67
2022/03/14 00:48:32;;;;;;;;;2.50;1.00;;;;;9.73;65.74;101763.81;5050184;28;49636;-67
2022/03/14 00:50:58;;;;;;;;;2.25;2.00;;;;;9.73;66.50;101775.19;5049494;28;49224;-67
2022/03/14 00:53:24;;;;;;;;;1.25;1.25;;;;;8.90;66.46;101641.66;5049923;28;49893;-67
2022/03/14 00:55:49;;;;;;;;;2.00;2.00;;;;;9.84;66.10;101793.09;5050067;28;49373;-67
2022/03/14 00:58:14;;;;;;;;;3.00;1.75;;;;;9.77;66.73;101791.97;5050363;28;49545;-67
2022/03/14 01:00:40;;;;;;;;;2.00;2.00;;;;;9.71;65.95;101807.44;5049129;28;49368;-66
2022/03/14 01:03:05;;;;;;;;;1.25;1.25;;;;;9.84;65.80;101803.56;5031817;28;51298;-66
2022/03/14 01:05:31;;;;;;;;;3.00;1.50;;;;;9.25;66.58;101695.47;5050079;28;49476;-67
2022/03/14 01:07:57;;;;;;;;;3.25;2.00;;;;;9.79;65.97;101797.28;5050050;28;49405;-67
2022/03/14 01:10:23;;;;;;;;;0.50;0.50;;;;;9.26;66.29;101704.22;5050155;28;49903;-67
2022/03/14 01:12:49;;;;;;;;;1.00;1.00;;;;;9.97;65.95;101834.72;5048642;28;50327;-66
2022/03/14 01:15:14;;;;;;;;;0.75;0.75;;;;;9.02;66.73;101652.63;5042059;28;49357;-66
2022/03/14 01:17:40;;;;;;;;;3.25;2.00;;;;;9.45;66.50;101743.44;5049673;28;49364;-66
2022/03/14 01:20:08;;;;;;;;;3.75;3.00;;;;;8.97;66.27;101695.16;5050018;28;49589;-66
2022/03/14 01:22:34;;;;;;;;;2.75;1.00;;;;;10.01;65.58;101841.88;5049243;28;50087;-66
2022/03/14 01:25:03;;;;;;;;;1.75;1.75;;;;;9.91;66.34;101838.00;5048570;28;49801;-66
2022/03/14 01:27:28;;;;;;;;;1.50;1.50;;;;;9.98;65.60;101853.16;5031610;28;49451;-66
2022/03/14 01:29:55;;;;;;;;;3.25;2.00;;;;;9.43;65.52;101761.75;5049727;28;49252;-66
2022/03/14 01:32:20;;;;;;;;;1.75;1.75;;;;;9.66;66.02;101798.50;5049316;28;50291;-66
2022/03/14 01:34:45;;;;;;;;;2.00;2.00;;;;;9.67;65.96;101811.69;5048522;28;49582;-66
2022/03/14 01:37:11;;;;;;;;;5.00;2.00;;;;;10.02;66.06;101864.66;5049656;28;49560;-66
2022/03/14 01:39:37;;;;;;;;;3.00;2.00;;;;;8.95;65.43;101715.16;5049693;28;49358;-66
2022/03/14 01:42:03;;;;;;;;;3.00;3.00;;;;;9.02;65.14;101693.63;5049365;28;49757;-66
2022/03/14 01:44:29;;;;;;;;;3.00;2.00;;;;;9.78;66.02;101824.34;5049104;28;49343;-66
2022/03/14 01:46:55;;;;;;;;;2.25;2.25;;;;;9.95;65.48;101857.41;5048600;28;49396;-66
2022/03/14 01:49:21;;;;;;;;;1.25;1.00;;;;;9.12;65.61;101717.66;5049469;28;49463;-65
2022/03/14 01:51:46;;;;;;;;;1.00;1.00;;;;;9.97;66.07;101869.72;5049356;28;49787;-65
2022/03/14 01:54:12;;;;;;;;;6.25;0.50;;;;;9.58;65.64;101799.91;5030766;28;49608;-66
2022/03/14 01:56:39;;;;;;;;;2.25;1.50;;;;;9.96;65.55;101873.19;5049583;28;49463;-66
2022/03/14 01:59:06;;;;;;;;;2.75;1.50;;;;;9.16;65.16;101743.13;5049828;28;49453;-66
2022/03/14 02:01:32;;;;;;;;;4.75;0.25;;;;;9.00;65.20;101730.25;5049097;28;49556;-66
2022/03/14 02:03:59;;;;;;;;;3.00;2.50;;;;;9.89;65.88;101868.53;5049362;28;49410;-67
2022/03/14 02:06:27;;;;;;;;;1.00;1.00;;;;;9.78;65.46;101855.81;5049768;28;49545;-67
2022/03/14 02:08:53;;;;;;;;;1.25;1.25;;;;;8.87;65.78;101700.00;5048999;28;49579;-67
2022/03/14 02:11:19;;;;;;;;;3.50;1.50;;;;;9.26;65.58;101796.81;5049147;28;49675;-66
2022/03/14 02:13:45;;;;;;;;;5.00;3.50;;;;;9.42;66.14;101820.22;5048675;28;49711;-66
2022/03/14 02:16:10;;;;;;;;;3.00;3.00;;;;;8.27;66.29;101622.34;5049608;28;49415;-66
2022/03/14 02:18:35;;;;;;;;;4.50;2.50;;;;;9.12;66.24;101788.38;5049448;28;49714;-67
2022/03/14 02:21:01;;;;;;;;;2.75;1.25;;;;;9.36;65.53;101863.63;5048988;28;49714;-67
2022/03/14 02:23:26;;;;;;;;;1.25;1.25;;;;;9.62;66.03;101894.47;5049006;28;49345;-67
2022/03/14 02:25:55;;;;;;;;;2.00;2.00;;;;;9.27;65.36;101844.91;5048437;28;49375;-67
2022/03/14 02:28:22;;;;;;;;;2.50;1.00;;;;;9.10;65.76;101820.59;5048826;28;49567;-67
2022/03/14 02:30:49;;;;;;;;;4.00;3.00;;;;;8.10;66.29;101678.22;5048767;28;50353;-66
2022/03/14 02:33:14;;;;;;;;;1.00;1.00;;;;;8.60;66.17;101741.63;5047720;28;49206;-67
2022/03/14 02:35:42;;;;;;;;;4.75;2.00;;;;;9.42;66.34;101900.59;5048612;28;49434;-67
2022/03/14 02:38:12;;;;;;;;;8.00;2.00;;;;;9.37;67.22;101900.41;5048846;28;49551;-67
2022/03/14 02:40:39;;;;;;;;;2.25;1.00;;;;;7.91;66.08;101676.47;5048839;28;50373;-67
2022/03/14 02:43:05;;;;;;;;;1.25;1.25;;;;;9.01;67.63;101852.50;5048532;28;49534;-66
2022/03/14 02:45:30;;;;;;;;;2.00;2.00;;;;;9.29;66.66;101909.66;5048336;28;49501;-66
2022/03/14 02:47:56;;;;;;;;;3.25;1.50;;;;;9.12;66.77;101889.66;5046945;28;49378;-66
2022/03/14 02:50:21;;;;;;;;;5.25;2.00;;;;;9.01;67.54;101878.72;5047810;28;49398;-64
2022/03/14 02:52:47;;;;;;;;;3.50;2.50;;;;;9.18;66.70;101924.00;5047452;28;49145;-64
2022/03/14 02:55:14;;;;;;;;;7.00;3.00;;;;;8.79;67.20;101878.56;5048094;28;49319;-65
2022/03/14 02:57:40;;;;;;;;;2.50;1.75;;;;;8.67;67.26;101857.03;5048594;28;49532;-65
2022/03/14 03:00:06;;;;;;;;;1.25;1.25;;;;;8.15;67.56;101805.78;5048010;28;50348;-65
2022/03/14 03:02:33;;;;;;;;;2.00;1.00;;;;;9.00;67.84;101933.63;5048424;28;49486;-65
2022/03/14 03:04:58;;;;;;;;;2.75;2.75;;;;;7.41;67.70;101682.84;5047923;28;49466;-65
2022/03/14 03:07:24;;;;;;;;;4.00;4.00;;;;;8.67;67.46;101928.63;5048479;28;49607;-65
2022/03/14 03:09:49;;;;;;;;;3.75;3.25;;;;;8.76;67.37;101917.69;5047665;28;50360;-65
2022/03/14 03:12:15;;;;;;;;;3.50;2.25;;;;;8.94;67.42;101957.81;5048158;28;49365;-65
2022/03/14 03:14:41;;;;;;;;;2.50;2.50;;;;;8.16;67.71;101828.50;5048027;28;49761;-65
2022/03/14 03:17:07;;;;;;;;;1.00;1.00;;;;;8.57;68.11;101915.91;5048333;28;49383;-65
2022/03/14 03:19:32;;;;;;;;;0.75;0.75;;;;;8.81;68.01;101969.44;5048091;28;49445;-65
2022/03/14 03:21:58;;;;;;;;;1.00;1.00;;;;;8.79;67.96;101978.97;5048275;28;49208;-65
2022/03/14 03:24:24;;;;;;;;;2.75;2.00;;;;;7.63;67.84;101802.38;5047762;28;49382;-65
2022/03/14 03:26:49;;;;;;;;;3.75;2.00;;;;;8.49;68.25;101970.53;5048092;28;49667;-66
2022/03/14 03:29:14;;;;;;;;;3.00;2.00;;;;;8.34;68.51;101927.88;5048206;28;50626;-65
2022/03/14 03:31:40;;;;;;;;;3.75;3.75;;;;;8.19;67.71;101907.09;5047970;28;49529;-65
2022/03/14 03:34:07;;;;;;;;;3.75;2.75;;;;;8.31;68.15;101938.22;5047689;28;49315;-65
2022/03/14 03:36:32;;;;;;;;;7.75;3.75;;;;;7.95;68.05;101895.44;5048251;28;49372;-65
2022/03/14 03:38:58;;;;;;;;;3.00;2.00;;;;;8.52;68.71;101994.22;5049737;28;50299;-64
2022/03/14 03:41:24;;;;;;;;;3.00;2.00;;;;;8.58;68.68;102035.50;5051609;28;49558;-67
2022/03/14 03:43:50;;;;;;;;;2.25;2.25;;;;;8.31;68.68;101986.19;5051594;28;49389;-65
2022/03/14 03:46:15;;;;;;;;;2.25;1.50;;;;;8.18;67.74;101988.13;5049585;28;49441;-64
2022/03/14 03:48:41;;;;;;;;;2.50;2.00;;;;;8.14;69.03;101981.84;5053360;28;50555;-65
2022/03/14 03:51:06;;;;;;;;;2.00;2.00;;;;;7.12;68.46;101819.81;5051322;28;49342;-65
2022/03/14 03:53:31;;;;;;;;;3.25;2.00;;;;;8.51;68.29;102049.13;5050863;28;49425;-64
2022/03/14 03:55:57;;;;;;;;;5.50;3.25;;;;;8.23;69.14;102020.66;5051489;28;49342;-64
2022/03/14 03:58:22;;;;;;;;;3.00;1.75;;;;;8.12;68.97;101987.81;5051499;28;49603;-65
2022/03/14 04:00:48;;;;;;;;;5.75;2.00;;;;;7.99;68.53;101965.38;5051315;28;49636;-64
2022/03/14 04:03:13;;;;;;;;;2.00;2.00;;;;;7.98;69.22;101981.88;5051448;28;49207;-64
2022/03/14 04:05:40;;;;;;;;;3.00;3.00;;;;;6.70;69.41;101766.28;5051110;28;49362;-64
2022/03/14 04:08:10;;;;;;;;;3.25;3.00;;;;;8.11;69.51;102028.78;5050784;28;50184;-64
2022/03/14 04:10:37;;;;;;;;;5.25;5.25;;;;;8.46;69.74;102069.81;5051154;28;49353;-65
2022/03/14 04:13:03;;;;;;;;;5.00;5.00;;;;;7.51;69.08;101935.91;5051346;28;49192;-64
2022/03/14 04:15:30;;;;;;;;;7.00;5.25;;;;;7.77;69.60;101959.88;5051114;28;49451;-65
2022/03/14 04:18:02;;;;;;;;;6.00;6.00;;;;;8.45;69.56;102077.59;5044094;28;49927;-65
2022/03/14 04:20:28;;;;;;;;;6.25;4.50;;;;;8.28;69.68;102053.16;5051162;28;49389;-66
2022/03/14 04:22:53;;;;;;;;;2.25;2.00;;;;;8.03;69.73;102004.84;5050737;28;49187;-66
2022/03/14 04:25:19;;;;;;;;;4.25;4.25;;;;;8.38;69.24;102075.47;5051147;28;49707;-66
2022/03/14 04:27:44;;;;;;;;;6.00;4.25;;;;;7.89;69.93;101989.25;5050385;28;50161;-66
2022/03/14 04:30:10;;;;;;;;;5.75;2.50;;;;;8.13;69.64;102048.06;5050484;28;49321;-65
2022/03/14 04:32:36;;;;;;;;;4.00;2.75;;;;;8.39;70.08;102083.41;5051383;28;49367;-66
2022/03/14 04:35:01;;;;;;;;;5.25;5.00;;;;;8.24;69.36;102078.28;5051016;28;49549;-65
2022/03/14 04:37:27;;;;;;;;;1.00;0.00;;;;;7.98;69.17;102032.47;5051088;28;49926;-66
2022/03/14 04:39:52;;;;;;;;;1.50;1.50;;;;;7.58;69.83;101974.63;5050450;28;49572;-66
2022/03/14 04:42:20;;;;;;;;;6.00;3.00;;;;;8.36;69.51;102109.44;5050439;28;49126;-66
2022/03/14 04:44:45;;;;;;;;;5.00;5.00;;;;;8.23;69.42;102088.66;5051085;28;49419;-66
2022/03/14 04:47:10;;;;;;;;;6.50;5.00;;;;;8.05;69.46;102067.69;5049052;28;49652;-68
2022/03/14 04:49:36;;;;;;;;;4.00;3.25;;;;;8.09;69.47;102081.81;5050196;28;49213;-65
2022/03/14 04:52:02;;;;;;;;;1.50;1.50;;;;;8.43;69.32;102142.94;5031468;28;49449;-65
2022/03/14 04:54:27;;;;;;;;;2.75;2.00;;;;;8.35;69.27;102122.44;5049967;28;49316;-66
2022/03/14 04:56:54;;;;;;;;;3.50;3.50;;;;;8.12;69.22;102102.91;5050204;28;49987;-66
2022/03/14 04:59:20;;;;;;;;;4.00;1.50;;;;;8.05;69.28;102099.06;5050265;28;49310;-66
2022/03/14 05:01:45;;;;;;;;;3.00;2.25;;;;;8.31;69.08;102137.06;5050652;28;49401;-66
2022/03/14 05:04:11;;;;;;;;;3.50;3.50;;;;;8.37;68.98;102153.09;5050521;28;49501;-65
2022/03/14 05:06:37;;;;;;;;;4.25;2.50;;;;;8.16;69.57;102121.44;5049790;28;49915;-65
2022/03/14 05:09:03;;;;;;;;;1.00;1.00;;;;;8.25;69.61;102134.09;5050176;28;49473;-65
2022/03/14 05:11:28;;;;;;;;;1.50;1.50;;;;;7.67;69.43;102045.66;5050029;28;49519;-65
2022/03/14 05:13:54;;;;;;;;;3.00;3.00;;;;;8.27;68.97;102174.31;5050365;28;49526;-65
2022/03/14 05:16:20;;;;;;;;;14.00;6.75;;;;;8.24;69.18;102166.31;5049876;28;50367;-65
2022/03/14 05:18:51;;;;;;;;;2.75;2.00;;;;;8.19;69.68;102165.16;5049801;28;49327;-65
2022/03/14 05:21:16;;;;;;;;;2.75;2.00;;;;;7.92;68.63;102122.78;5050762;28;49427;-66
2022/03/14 05:23:42;;;;;;;;;5.75;4.00;;;;;7.09;68.40;101990.28;5050081;28;49341;-66
2022/03/14 05:26:07;;;;;;;;;3.50;2.00;;;;;7.23;68.65;102024.97;5050160;28;50164;-66
2022/03/14 05:28:33;;;;;;;;;4.00;1.25;;;;;7.65;68.94;102117.88;5049791;28;49460;-65
2022/03/14 05:30:58;;;;;;;;;2.00;2.00;;;;;8.10;68.40;102193.44;5050013;28;49446;-65
2022/03/14 05:33:24;;;;;;;;;7.00;5.75;;;;;7.74;69.43;102146.22;5046336;28;49670;-65
2022/03/14 05:35:51;;;;;;;;;6.00;3.75;;;;;7.67;69.28;102124.06;5049212;28;49334;-65
2022/03/14 05:38:16;;;;;;;;;2.00;2.00;;;;;7.89;68.78;102183.63;5049013;28;49309;-65
2022/03/14 05:40:42;;;;;;;;;6.00;3.00;;;;;8.00;69.10;102186.81;5042902;28;49770;-65
2022/03/14 05:43:09;;;;;;;;;4.00;3.00;;;;;7.89;69.25;102175.78;5038461;28;49976;-65
2022/03/14 05:45:35;;;;;;;;;3.00;2.00;;;;;7.95;69.33;102189.22;5046041;28;50169;-65
2022/03/14 05:48:00;;;;;;;;;4.25;4.25;;;;;7.00;69.77;102038.50;5044962;28;49778;-66
2022/03/14 05:50:26;;;;;;;;;6.75;3.00;;;;;6.21;69.58;101938.38;5045601;28;49699;-66
2022/03/14 05:52:54;;;;;;;;;4.25;2.50;;;;;7.88;68.89;102215.84;5044036;28;49496;-66
2022/03/14 05:55:20;;;;;;;;;4.00;3.00;;;;;7.49;69.25;102150.91;5041172;28;50339;-65
2022/03/14 05:57:46;;;;;;;;;6.50;2.75;;;;;7.84;69.19;102206.03;5049235;28;49378;-65
2022/03/14 06:00:13;;;;;;;;;6.00;6.00;;;;;7.82;69.30;102231.22;5048600;28;49800;-65
2022/03/14 06:02:44;;;;;;;;;4.50;4.50;;;;;7.80;68.97;102230.19;5048181;28;49326;-66
2022/03/14 06:05:10;;;;;;;;;5.00;2.75;;;;;7.37;68.96;102182.50;5049192;28;49600;-66
2022/03/14 06:07:35;;;;;;;;;3.00;3.00;;;;;7.75;69.28;102247.34;5048800;28;49533;-66
2022/03/14 06:10:01;;;;;;;;;13.00;9.75;;;;;7.67;69.03;102231.25;5031321;28;49831;-64
2022/03/14 06:12:29;;;;;;;;;9.50;7.00;;;;;7.72;69.43;102250.72;5049007;28;49473;-64
2022/03/14 06:14:57;;;;;;;;;5.75;5.75;;;;;7.63;68.79;102228.38;5048258;28;51870;-66
2022/03/14 06:17:22;;;;;;;;;3.00;3.00;;;;;7.33;69.00;102180.50;5031094;28;49465;-66
2022/03/14 06:19:49;;;;;;;;;6.75;6.25;;;;;7.54;69.63;102247.06;5049245;28;49427;-66
2022/03/14 06:22:19;;;;;;;;;7.00;4.25;;;;;7.67;69.67;102248.63;5048813;28;49541;-66
2022/03/14 06:24:46;;;;;;;;;8.00;6.00;;;;;7.57;69.08;102239.38;5047352;28;50103;-67
2022/03/14 06:27:12;;;;;;;;;8.00;5.00;;;;;7.65;69.07;102256.41;5049165;28;49614;-67
2022/03/14 06:29:38;;;;;;;;;7.75;4.00;;;;;7.18;69.38;102214.50;5048940;28;49438;-69
2022/03/14 06:32:04;;;;;;;;;5.50;3.00;;;;;6.78;69.56;102112.09;5030818;28;49674;-62
2022/03/14 06:34:30;;;;;;;;;8.75;5.75;;;;;7.26;69.33;102200.16;5048356;28;49314;-61
2022/03/14 06:36:56;;;;;;;;;5.00;5.00;;;;;7.58;69.18;102269.94;5048178;28;49444;-60
2022/03/14 06:39:21;;;;;;;;;2.50;2.00;;;;;7.66;69.32;102289.56;5046787;28;49296;-61
2022/03/14 06:41:47;;;;;;;;;3.00;3.00;;;;;7.51;69.19;102274.72;5046841;28;49553;-67
2022/03/14 06:44:13;;;;;;;;;6.50;6.00;;;;;7.61;69.51;102285.78;5028115;28;52645;-61
2022/03/14 06:46:39;;;;;;;;;6.00;5.00;;;;;7.65;68.90;102297.31;5046400;28;49486;-61
2022/03/14 06:49:04;;;;;;;;;9.25;4.25;;;;;7.41;69.80;102255.00;5046299;28;50035;-61
2022/03/14 06:51:30;;;;;;;;;5.75;5.75;;;;;7.70;69.45;102303.69;5046804;28;49855;-62
2022/03/14 06:53:55;;;;;;;;;8.00;7.00;;;;;7.41;69.88;102247.16;5045577;28;49953;-62
2022/03/14 06:56:21;;;;;;;;;3.00;3.00;;;;;7.08;69.23;102189.56;5046124;28;49489;-62
2022/03/14 06:58:46;;;;;;;;;10.50;8.75;;;;;7.04;69.44;102164.06;5046396;28;49550;-62
2022/03/14 07:01:12;;;;;;;;;6.25;6.00;;;;;7.92;69.27;102313.66;5046950;28;49291;-62
2022/03/14 07:03:38;;;;;;;;;11.75;8.00;;;;;7.66;69.13;102276.50;5046260;28;49792;-61
2022/03/14 07:06:03;;;;;;;;;6.25;5.50;;;;;7.58;69.14;102266.41;5045491;28;49497;-62
2022/03/14 07:08:29;;;;;;;;;7.75;5.75;;;;;7.91;69.68;102322.28;5046011;28;49525;-64
2022/03/14 07:10:55;;;;;;;;;8.50;7.50;;;;;6.86;69.42;102165.66;5044972;28;49694;-64
2022/03/14 07:13:23;;;;;;;;;7.75;6.25;;;;;8.08;69.49;102352.91;5043576;28;50345;-64
2022/03/14 07:15:49;;;;;;;;;7.50;7.50;;;;;6.87;68.98;102150.06;5043698;28;49414;-67
2022/03/14 07:18:15;;;;;;;;;10.25;8.00;;;;;6.18;69.07;102037.31;5045907;28;49665;-61
2022/03/14 07:20:41;;;;;;;;;10.50;7.50;;;;;7.78;69.71;102288.44;5045071;28;49655;-63
2022/03/14 07:23:07;;;;;;;;;13.25;10.50;;;;;7.46;68.92;102240.50;5045238;28;50039;-61
2022/03/14 07:25:37;;;;;;;;;11.00;10.50;;;;;8.10;69.14;102343.44;5045350;28;49745;-61
2022/03/14 07:28:05;;;;;;;;;9.50;7.25;;;;;7.89;69.61;102293.47;5040099;28;49389;-61
2022/03/14 07:30:31;;;;;;;;;9.00;9.00;;;;;8.02;68.93;102314.25;5033827;28;49759;-61
2022/03/14 07:32:57;;;;;;;;;8.00;7.00;;;;;7.94;69.21;102304.19;5040180;28;49779;-61
2022/03/14 07:35:24;;;;;;;;;11.75;10.50;;;;;8.37;69.70;102359.81;5045211;28;49760;-61
2022/03/14 07:37:50;;;;;;;;;11.00;7.25;;;;;8.57;68.65;102384.44;5045168;28;49807;-60
2022/03/14 07:40:16;;;;;;;;;11.00;11.00;;;;;8.68;68.61;102400.75;5044671;28;49927;-61
2022/03/14 07:42:43;;;;;;;;;11.25;8.75;;;;;8.69;68.48;102382.53;5041253;28;50114;-61
2022/03/14 07:45:10;;;;;;;;;8.00;8.00;;;;;8.55;68.83;102341.59;5044913;28;49743;-64
2022/03/14 07:47:36;;;;;;;;;7.25;7.25;;;;;8.95;68.25;102414.44;5021185;28;49309;-62
2022/03/14 07:50:02;;;;;;;;;8.75;8.75;;;;;7.73;67.72;102231.59;5025441;28;49880;-62
2022/03/14 07:52:27;;;;;;;;;9.50;7.75;;;;;8.77;67.56;102364.59;5028439;28;49722;-63
2022/03/14 07:54:53;;;;;;;;;10.50;10.50;;;;;9.01;67.90;102415.66;5023286;28;50029;-62
2022/03/14 07:57:18;;;;;;;;;11.00;9.00;;;;;9.12;67.84;102434.56;5025809;28;49701;-63
2022/03/14 07:59:46;;;;;;;;;11.50;9.25;;;;;9.18;66.93;102435.81;5024113;28;50036;-62
2022/03/14 08:02:13;;;;;;;;;12.75;11.50;;;;;9.17;67.32;102413.06;5021487;28;50016;-62
2022/03/14 08:04:39;;;;;;;;;9.25;8.00;;;;;9.28;67.21;102429.34;5026847;28;49608;-65
2022/03/14 08:07:05;;;;;;;;;8.00;7.00;;;;;9.17;66.70;102410.44;5028815;28;49958;-62
2022/03/14 08:09:32;;;;;;;;;13.00;9.00;;;;;9.36;66.83;102427.09;5029154;28;50102;-61
2022/03/14 08:11:58;;;;;;;;;8.75;8.75;;;;;9.36;65.69;102430.66;5029339;28;49733;-60
2022/03/14 08:14:24;;;;;;;;;12.00;7.50;;;;;8.84;66.62;102340.53;5029451;28;49743;-60
2022/03/14 08:16:49;;;;;;;;;5.50;5.50;;;;;9.40;66.79;102448.31;5029507;28;49623;-61
2022/03/14 08:19:15;;;;;;;;;6.50;6.50;;;;;8.76;66.25;102354.94;5029591;28;49980;-60
2022/03/14 08:21:40;;;;;;;;;8.25;7.50;;;;;9.38;66.08;102442.09;5028961;28;50793;-61
2022/03/14 08:24:06;;;;;;;;;8.00;7.00;;;;;9.34;66.30;102428.75;5012033;28;49656;-61
2022/03/14 08:26:33;;;;;;;;;10.75;7.00;;;;;9.55;66.43;102460.41;5032911;28;49817;-61
2022/03/14 08:29:00;;;;;;;;;8.25;8.25;;;;;9.61;66.04;102459.00;5032593;28;49915;-61
2022/03/14 08:31:26;;;;;;;;;11.50;9.75;;;;;9.65;66.14;102461.00;5032397;28;49807;-61
2022/03/14 08:33:51;;;;;;;;;7.25;7.25;;;;;9.28;65.87;102378.66;5032731;28;49949;-62
2022/03/14 08:36:20;;;;;;;;;7.00;7.00;;;;;9.75;66.22;102455.41;5026246;28;50033;-61
2022/03/14 08:38:51;;;;;;;;;8.50;7.00;;;;;9.74;65.80;102465.78;5032640;28;49816;-61
2022/03/14 08:41:17;;;;;;;;;5.75;3.75;;;;;8.90;65.22;102293.72;5032413;28;49992;-62
2022/03/14 08:43:43;;;;;;;;;8.75;8.50;;;;;9.77;65.02;102454.56;5032408;28;49718;-59
2022/03/14 08:46:10;;;;;;;;;12.25;9.00;;;;;8.07;65.07;102177.59;5025955;28;49750;-60
2022/03/14 08:48:35;;;;;;;;;7.50;7.50;;;;;8.74;65.48;102292.00;5031227;28;49652;-58
2022/03/14 08:51:00;;;;;;;;;8.00;7.00;;;;;8.85;65.95;102276.84;5032037;28;50610;-60
2022/03/14 08:53:26;;;;;;;;;13.75;10.25;;;;;10.04;66.20;102479.56;5032187;28;49899;-59
2022/03/14 08:55:52;;;;;;;;;9.00;7.50;;;;;10.03;65.81;102477.75;5014494;28;50482;-58
2022/03/14 08:58:17;;;;;;;;;12.50;9.25;;;;;10.07;65.86;102471.84;5032691;28;49927;-58
2022/03/14 09:00:43;;;;;;;;;9.00;7.00;;;;;10.23;65.44;102500.69;5032078;28;49699;-58
2022/03/14 09:03:09;;;;;;;;;16.75;11.75;;;;;9.82;65.55;102412.00;5031963;28;49797;-58
2022/03/14 09:05:34;;;;;;;;;9.50;8.25;;;;;9.80;64.35;102392.66;5032000;28;49775;-59
2022/03/14 09:08:00;;;;;;;;;6.75;6.25;;;;;10.34;64.68;102477.59;5032132;28;49796;-58
2022/03/14 09:10:26;;;;;;;;;9.25;8.50;;;;;10.43;64.54;102488.56;5032000;28;49799;-58
2022/03/14 09:12:51;;;;;;;;;7.00;7.00;;;;;10.39;64.61;102483.06;5032169;28;50106;-58
2022/03/14 09:15:17;;;;;;;;;12.00;8.75;;;;;10.50;65.27;102498.50;5032139;28;50100;-58
2022/03/14 09:17:59;;;;;;;;;10.50;7.75;;;;;10.56;64.30;102503.16;5032253;28;49972;-58
2022/03/14 09:20:26;;;;;;;;;13.00;11.75;;;;;10.60;64.91;102513.88;5031765;28;50503;-58
2022/03/14 09:22:52;;;;;;;;;11.50;8.25;;;;;10.30;63.89;102442.41;5031580;28;49630;-58
2022/03/14 09:25:19;;;;;;;;;2.75;2.50;;;;;10.61;63.08;102499.03;5032202;28;49687;-59
2022/03/14 09:27:45;;;;;;;;;7.00;7.00;;;;;10.51;64.20;102481.03;5031885;28;49868;-59
2022/03/14 09:30:13;;;;;;;;;8.25;6.75;;;;;9.62;63.96;102345.44;5031942;28;49862;-59
2022/03/14 09:32:40;;;;;;;;;13.75;9.50;;;;;10.71;63.72;102485.53;5032255;28;49974;-59
2022/03/14 09:35:06;;;;;;;;;11.25;8.75;;;;;10.79;64.53;102501.63;5031118;28;49733;-58
2022/03/14 09:37:34;;;;;;;;;15.25;8.75;;;;;10.94;64.19;102504.09;5031139;28;49868;-59
2022/03/14 09:40:00;;;;;;;;;7.00;7.00;;;;;10.72;64.25;102465.41;5031552;28;49856;-58
2022/03/14 09:42:27;;;;;;;;;8.00;7.50;;;;;10.99;63.78;102492.06;5031415;28;49793;-59
2022/03/14 09:44:57;;;;;;;;;8.00;8.00;;;;;10.69;63.40;102439.88;5031738;28;49668;-59
2022/03/14 09:47:23;;;;;;;;;7.50;7.00;;;;;11.08;63.62;102492.50;5031750;28;49849;-59
2022/03/14 09:49:54;;;;;;;;;11.75;9.75;;;;;10.75;64.16;102428.78;5031586;28;49980;-73
2022/03/14 09:52:20;;;;;;;;;8.25;8.25;;;;;11.28;63.22;102511.81;5031353;28;49682;-62
2022/03/14 09:54:48;;;;;;;;;10.50;8.50;;;;;11.29;63.29;102490.88;5031388;28;49858;-62
2022/03/14 09:57:14;;;;;;;;;9.25;8.00;;;;;11.39;63.24;102503.59;5031345;28;49719;-62
2022/03/14 09:59:39;;;;;;;;;9.25;5.25;;;;;11.45;63.40;102534.50;5031050;28;50674;-69
2022/03/14 10:02:07;;;;;;;;;7.00;7.00;;;;;11.16;63.17;102455.22;5031288;28;49711;-69
2022/03/14 10:04:33;;;;;;;;;8.00;8.00;;;;;9.88;63.02;102235.66;5031425;28;49743;-70
2022/03/14 10:06:58;;;;;;;;;7.00;7.00;;;;;11.59;62.57;102520.28;5031374;28;50260;-70
2022/03/14 10:09:23;;;;;;;;;9.25;6.75;;;;;10.85;61.89;102379.34;5030949;28;50196;-70
2022/03/14 10:11:49;;;;;;;;;8.25;6.00;;;;;9.86;61.71;102211.09;5031040;28;49668;-77
2022/03/14 10:14:19;;;;;;;;;8.00;6.75;;;;;11.73;61.84;102521.75;5031211;28;49659;-66
2022/03/14 10:16:47;;;;;;;;;9.00;8.00;;;;;11.71;62.08;102497.13;5031216;28;50012;-71
2022/03/14 10:19:20;;;;;;;;;8.50;6.75;;;;;11.48;61.40;102447.84;5030810;28;49932;-70
2022/03/14 10:21:46;;;;;;;;;21.75;14.25;;;;;11.86;61.10;102507.44;5030981;28;49687;-65
2022/03/14 10:24:13;;;;;;;;;13.75;11.00;;;;;10.85;60.86;102366.22;5030874;28;49689;-73
2022/03/14 10:26:44;;;;;;;;;12.50;11.00;;;;;11.05;61.10;102369.72;5031321;28;49981;-71
2022/03/14 10:29:13;;;;;;;;;13.00;13.00;;;;;11.97;60.64;102540.41;5030959;28;51160;-70
2022/03/14 10:31:43;;;;;;;;;11.00;10.75;;;;;11.15;61.05;102363.16;5031043;28;49749;-69
2022/03/14 10:34:12;;;;;;;;;9.25;8.00;;;;;11.86;60.64;102481.13;5030711;28;49731;-70
2022/03/14 10:36:49;;;;;;;;;9.50;7.75;;;;;10.97;60.57;102352.72;5030950;28;50209;-71
2022/03/14 10:39:27;;;;;;;;;7.00;5.25;;;;;12.18;61.10;102532.53;5030399;28;49609;-69
2022/03/14 10:42:13;;;;;;;;;8.50;8.50;;;;;11.80;59.80;102448.41;5030778;28;49810;-70
2022/03/14 10:44:41;;;;;;;;;10.50;10.50;;;;;11.59;59.66;102407.16;5029351;28;49887;-67
2022/03/14 10:47:08;;;;;;;;;9.75;5.50;;;;;11.23;59.75;102331.94;5030600;28;49565;-67
2022/03/14 10:49:37;;;;;;;;;8.50;8.25;;;;;12.32;60.64;102530.44;5030401;28;50759;-68
2022/03/14 10:52:08;;;;;;;;;11.25;9.25;;;;;12.19;59.29;102496.56;5030303;28;49653;-67
2022/03/14 10:54:38;;;;;;;;;14.25;11.00;;;;;12.28;59.23;102505.75;5030342;28;49768;-64
2022/03/14 10:57:09;;;;;;;;;10.00;8.75;;;;;12.40;58.84;102514.97;5024858;28;49976;-65
2022/03/14 10:59:39;;;;;;;;;9.50;9.00;;;;;12.18;59.37;102478.97;5030363;28;50766;-71
2022/03/14 11:02:07;;;;;;;;;7.25;7.25;;;;;11.92;58.71;102464.72;5030388;28;49860;-62
2022/03/14 11:04:41;;;;;;;;;8.25;8.00;;;;;12.44;58.86;102528.31;5030573;28;49770;-64
2022/03/14 11:07:06;;;;;;;;;10.75;7.50;;;;;12.57;58.18;102532.38;5030508;28;49908;-64
2022/03/14 11:09:44;;;;;;;;;10.75;7.25;;;;;12.48;58.27;102510.94;5029199;28;50436;-64
2022/03/14 11:12:12;;;;;;;;;8.25;5.00;;;;;11.35;56.32;102321.94;5030022;28;49905;-64
2022/03/14 11:14:38;;;;;;;;;14.25;8.75;;;;;12.01;57.53;102425.63;5030073;28;49796;-64
2022/03/14 11:17:16;;;;;;;;;7.25;6.25;;;;;12.63;57.28;102501.00;5030416;28;49658;-64
2022/03/14 11:19:42;;;;;;;;;5.25;5.25;;;;;12.89;57.23;102539.81;5030254;28;50895;-64
2022/03/14 11:22:10;;;;;;;;;7.50;6.75;;;;;11.33;56.56;102253.53;5030188;28;49839;-72
2022/03/14 11:24:40;;;;;;;;;12.75;9.25;;;;;12.78;56.24;102470.00;5030151;28;49697;-67
2022/03/14 11:27:06;;;;;;;;;12.75;10.75;;;;;13.05;56.85;102514.97;5030084;28;49719;-64